Latest Weather Observations for Tunnack

IDT60801

Issued at 9:31 pm EST Saturday 4 July 2015 (issued every 30 minutes, with the page automatically refreshed every 10 minutes)

About weather observations | Map of weather stations | Latest weather observations for TAS | Other Formats
Station Details ID: 094195 Name: TUNNACK FIRE STATION Lat: -42.45 Lon: 147.46 Height: 461.5 m
Data from the previous 72 hours. | See also: Recent months at Tunnack
Date/Time
EST
Temp
°C
App
Temp
°C
Dew
Point
Rel
Hum
%
Delta-T
°C
Wind Press
QNH
hPa
Press
MSL
hPa
Rain
since 9 am
mm
Dir
 
Spd
km/h
Gust
km/h
Spd
kts
Gust
kts
04/09:30pm 4.3 -1.3 0.1 74 1.6 WNW 19 26 10 14 1013.6 1014.6 0.0
04/09:00pm 3.7 -3.6 -0.1 76 1.5 WNW 28 35 15 19 1013.5 1014.5 0.0
04/08:30pm 4.8 -3.4 0.2 72 1.8 WNW 33 39 18 21 1013.5 1014.5 0.0
04/08:00pm 4.5 -3.1 0.3 74 1.7 WNW 30 37 16 20 1013.5 1014.5 0.0
04/07:30pm 4.0 -2.9 0.2 76 1.5 WNW 26 30 14 16 1013.5 1014.5 0.0
04/07:00pm 3.4 -3.9 -0.2 77 1.4 WNW 28 32 15 17 1013.2 1014.2 0.0
04/06:30pm 3.8 -3.5 -0.2 75 1.5 WNW 28 32 15 17 1013.0 1014.0 0.0
04/06:00pm 5.0 -1.9 0.4 72 1.8 NW 26 32 14 17 1012.8 1013.8 0.0
04/05:30pm 5.7 0.5 -0.1 66 2.3 W 17 28 9 15 1012.6 1013.6 0.0
04/05:00pm 6.0 0.2 -0.3 64 2.5 W 20 30 11 16 1012.5 1013.5 0.0
04/04:30pm 6.7 -0.6 -0.1 62 2.7 W 28 43 15 23 1012.0 1013.1 0.0
04/04:17pm 7.2 -0.1 -0.3 59 3.0 W 28 46 15 25 1011.9 1013.0 0.0
04/04:00pm 7.5 1.0 0.3 60 2.9 W 24 37 13 20 1012.1 1013.2 0.0
04/03:30pm 8.4 1.9 0.4 57 3.3 W 24 39 13 21 1011.9 1013.0 0.0
04/03:00pm 9.1 2.3 1.0 57 3.4 W 26 44 14 24 1011.6 1012.6 0.0
04/02:49pm 8.9 1.7 0.4 55 3.5 W 28 46 15 25 1011.5 1012.5 0.0
04/02:30pm 9.2 2.0 0.6 55 3.6 W 28 43 15 23 1011.3 1012.3 0.0
04/02:00pm 10.0 3.8 2.1 58 3.4 WSW 24 37 13 20 1010.9 1011.9 0.0
04/01:30pm 9.7 3.0 1.4 56 3.5 W 26 44 14 24 1010.9 1011.9 0.0
04/01:02pm 10.3 3.3 1.7 55 3.7 W 28 46 15 25 1010.8 1011.8 0.0
04/01:00pm 10.0 2.5 1.4 55 3.7 W 30 46 16 25 1010.8 1011.8 0.0
04/12:45pm 10.2 3.1 1.3 54 3.8 W 28 46 15 25 1010.7 1011.7 0.0
04/12:30pm 10.3 3.1 0.9 52 4.0 W 28 43 15 23 1010.7 1011.7 0.0
04/12:08pm 10.3 3.2 1.4 54 3.8 W 28 48 15 26 1010.7 1011.7 0.0
04/12:00pm 10.4 3.5 2.3 57 3.6 W 28 44 15 24 1010.9 1011.9 0.0
04/11:35am 10.2 3.2 1.8 56 3.6 W 28 46 15 25 1011.0 1012.0 0.0
04/11:30am 10.2 2.4 1.8 56 3.6 W 32 46 17 25 1011.1 1012.1 0.0
04/11:04am 10.1 3.2 2.7 60 3.3 W 28 46 15 25 1011.2 1012.2 0.0
04/11:00am 9.6 3.1 2.7 62 3.0 W 26 41 14 22 1011.3 1012.3 0.0
04/10:38am 10.2 3.5 3.9 65 2.9 W 28 46 15 25 1011.1 1012.1 0.0
04/10:30am 10.0 2.5 3.5 64 2.9 W 32 46 17 25 1011.2 1012.2 0.0
04/10:18am 10.2 3.7 4.6 68 2.6 W 28 48 15 26 1011.0 1012.0 0.0
04/10:00am 10.0 3.8 6.2 77 1.8 WNW 28 41 15 22 1010.9 1011.9 0.0
04/09:56am 9.8 3.7 6.7 81 1.5 WNW 28 41 15 22 1010.8 1011.8 0.0
04/09:30am 8.3 5.4 8.2 99 0.0 NW 13 22 7 12 1010.8 1011.8 0.0
04/09:00am 6.8 3.2 6.7 99 0.0 NNW 15 20 8 11 1010.6 1011.6 0.0
04/08:30am 6.7 3.1 6.6 99 0.0 NNW 15 20 8 11 1010.6 1011.6 0.0
04/08:00am 7.0 4.2 6.9 99 0.0 NNW 11 13 6 7 1010.3 1011.3 0.0
04/07:30am 6.9 4.1 6.8 99 0.0 NNE 11 15 6 8 1009.9 1010.9 0.0
04/07:00am 6.5 4.3 6.4 99 0.0 ENE 7 11 4 6 1009.9 1010.9 0.0
04/06:30am 5.8 3.1 5.7 99 0.0 E 9 15 5 8 1009.7 1010.7 0.0
04/06:00am 5.2 2.0 5.1 99 0.0 NE 11 15 6 8 1009.5 1010.5 0.0
04/05:30am 4.8 1.5 4.7 99 0.0 NE 11 15 6 8 1009.4 1010.4 0.0
04/05:00am 4.7 -0.7 4.3 97 0.2 N 22 28 12 15 1009.4 1010.4 0.0
04/04:30am 4.9 -0.3 3.7 92 0.5 N 20 28 11 15 1009.4 1010.4 0.0
04/04:00am 5.0 0.0 3.7 91 0.6 N 19 24 10 13 1009.7 1010.7 0.0
04/03:30am 4.5 -0.7 3.5 93 0.4 N 20 26 11 14 1010.2 1011.2 0.0
04/03:00am 4.5 -0.8 3.0 90 0.6 N 20 24 11 13 1010.6 1011.6 0.0
04/02:30am 4.8 -0.6 2.5 85 1.0 N 20 28 11 15 1010.9 1011.9 0.0
04/02:00am 4.8 0.7 2.3 84 1.0 N 13 20 7 11 1011.4 1012.4 0.0
04/01:30am 5.0 0.8 1.8 80 1.3 NNE 13 20 7 11 1011.5 1012.5 0.0
04/01:00am 6.3 0.8 1.8 73 1.9 NNW 20 30 11 16 1011.5 1012.5 0.0
04/12:30am 6.5 1.6 1.8 72 2.0 NW 17 28 9 15 1012.3 1013.4 0.0
04/12:00am 6.3 -1.1 1.6 72 1.9 NW 30 39 16 21 1012.3 1013.4 0.0
 
Date/Time
EST
Temp
°C
App
Temp
°C
Dew
Point
Rel
Hum
%
Delta-T
°C
Wind Press
QNH
hPa
Press
MSL
hPa
Rain
since 9 am
mm
Dir
 
Spd
km/h
Gust
km/h
Spd
kts
Gust
kts
03/11:34pm 6.0 -1.0 1.7 74 1.8 NW 28 46 15 25 1012.9 1013.9 0.0
03/11:30pm 5.6 -1.5 1.5 75 1.7 NW 28 41 15 22 1013.0 1014.0 0.0
03/11:00pm 5.4 1.3 2.4 81 1.3 NNW 13 35 7 19 1013.4 1014.4 0.0
03/10:30pm 3.2 0.0 0.6 83 1.0 NE 7 13 4 7 1013.5 1014.5 0.0
03/10:00pm 3.3 -0.6 0.9 84 0.9 NNE 11 15 6 8 1014.0 1015.1 0.0
03/09:30pm 3.3 -1.4 0.9 84 0.9 N 15 20 8 11 1014.4 1015.5 0.0
03/09:00pm 3.9 -2.2 0.1 76 1.5 NNW 22 32 12 17 1014.8 1015.8 0.0
03/08:30pm 5.2 -3.0 0.6 72 1.8 NW 33 46 18 25 1014.8 1015.8 0.0
03/08:00pm 5.1 -2.9 0.5 72 1.8 NW 32 43 17 23 1015.1 1016.1 0.0
03/07:30pm 4.8 -2.8 0.4 73 1.7 WNW 30 35 16 19 1015.2 1016.2 0.0
03/07:00pm 5.0 -2.2 0.6 73 1.8 NW 28 35 15 19 1015.4 1016.4 0.0
03/06:30pm 5.2 -3.3 0.8 73 1.8 NW 35 44 19 24 1015.5 1016.5 0.0
03/06:00pm 5.3 -2.8 1.1 74 1.7 WNW 33 46 18 25 1015.8 1016.9 0.0
03/05:30pm 5.4 -2.1 1.0 73 1.8 WNW 30 37 16 20 1015.7 1016.8 0.0
03/05:00pm 5.5 -0.5 0.9 72 1.9 WNW 22 32 12 17 1015.8 1016.9 0.0
03/04:30pm 6.5 0.9 1.0 68 2.2 NW 20 30 11 16 1016.0 1017.1 0.0
03/04:00pm 7.2 2.2 1.5 67 2.4 NW 17 26 9 14 1016.3 1017.4 0.0
03/03:30pm 7.0 1.1 1.5 68 2.3 WNW 22 35 12 19 1016.6 1017.7 0.0
03/03:00pm 7.8 1.6 1.9 66 2.5 WNW 24 39 13 21 1016.6 1017.7 0.0
03/02:30pm 8.0 0.9 1.4 63 2.8 WNW 28 43 15 23 1017.0 1018.0 0.0
03/02:00pm 7.7 2.2 2.0 67 2.4 WNW 20 32 11 17 1017.4 1018.5 0.0
03/01:30pm 8.1 1.5 1.9 65 2.6 NW 26 33 14 18 1018.0 1019.1 0.0
03/01:00pm 7.6 2.1 1.7 66 2.5 NW 20 30 11 16 1018.5 1019.6 0.0
03/12:30pm 6.9 0.5 1.0 66 2.4 NW 24 35 13 19 1019.0 1020.1 0.0
03/12:00pm 6.4 0.0 0.7 67 2.3 NW 24 37 13 20 1019.6 1020.7 0.0
03/11:30am 6.1 -0.7 0.9 69 2.1 NW 26 37 14 20 1020.0 1021.1 0.0
03/11:00am 5.6 -0.8 1.0 72 1.9 NW 24 33 13 18 1020.5 1021.6 0.0
03/10:30am 5.1 -2.1 0.9 74 1.7 NW 28 35 15 19 1021.0 1022.2 0.0
03/10:00am 4.8 -1.2 0.9 76 1.6 NW 22 30 12 16 1021.2 1022.4 0.0
03/09:30am 3.9 -3.3 0.6 79 1.3 WNW 28 39 15 21 1021.0 1022.2 0.0
03/09:00am 3.2 -3.7 0.3 81 1.1 WNW 26 37 14 20 1021.2 1022.4 0.0
03/08:30am 2.5 -3.3 -0.1 83 1.0 WNW 20 30 11 16 1021.4 1022.6 0.0
03/08:00am 2.0 -4.2 -0.2 85 0.8 WNW 22 28 12 15 1021.4 1022.6 0.0
03/07:30am 1.9 -4.3 -0.2 86 0.8 WNW 22 30 12 16 1021.2 1022.4 0.0
03/07:00am 1.5 -4.3 -0.3 88 0.7 WNW 20 26 11 14 1021.1 1022.3 0.0
03/06:30am 1.3 -3.2 -0.5 88 0.7 WNW 13 19 7 10 1020.9 1022.0 0.0
03/06:00am 1.4 -4.4 -0.4 88 0.7 WNW 20 28 11 15 1020.6 1021.7 0.0
03/05:30am 1.4 -2.7 -0.2 89 0.6 W 11 19 6 10 1020.6 1021.7 0.0
03/05:00am 0.9 -3.3 -1.0 87 0.7 WSW 11 17 6 9 1020.7 1021.8 0.0
03/04:30am 1.3 -3.2 -0.5 88 0.7 W 13 24 7 13 1020.7 1021.8 0.0
03/04:00am 0.8 -4.5 -0.8 89 0.6 W 17 20 9 11 1021.0 1022.2 0.0
03/03:30am 1.6 -3.3 -0.5 86 0.8 WSW 15 24 8 13 1021.2 1022.4 0.0
03/03:00am 1.9 -3.0 -0.2 86 0.8 WSW 15 30 8 16 1021.4 1022.6 0.0
03/02:30am 1.6 -4.3 -0.5 86 0.8 WSW 20 28 11 15 1021.4 1022.6 0.0
03/02:00am 1.4 -2.0 -0.8 85 0.8 WNW 7 15 4 8 1021.7 1022.8 0.0
03/01:30am 1.8 -3.1 -0.8 83 1.0 W 15 24 8 13 1021.3 1022.5 0.0
03/01:00am 1.5 -4.2 -0.7 85 0.8 WSW 19 28 10 15 1021.0 1022.2 0.0
03/12:30am 1.7 -3.6 -0.4 86 0.8 WSW 17 30 9 16 1021.4 1022.6 0.0
03/12:00am 1.1 -4.2 -0.7 88 0.7 WSW 17 20 9 11 1021.4 1022.6 0.0
 
Date/Time
EST
Temp
°C
App
Temp
°C
Dew
Point
Rel
Hum
%
Delta-T
°C
Wind Press
QNH
hPa
Press
MSL
hPa
Rain
since 9 am
mm
Dir
 
Spd
km/h
Gust
km/h
Spd
kts
Gust
kts
02/11:30pm 0.6 -3.3 -1.2 88 0.7 W 9 13 5 7 1021.9 1023.0 0.0
02/11:00pm 0.8 -3.5 -1.6 84 0.9 W 11 17 6 9 1021.7 1022.8 0.0
02/10:30pm 1.0 -4.1 -2.1 80 1.2 W 15 22 8 12 1021.1 1022.3 0.0
02/10:00pm 1.7 -3.4 -1.9 77 1.3 W 15 22 8 12 1021.0 1022.2 0.0
02/09:30pm 1.5 -3.9 -1.7 79 1.2 WSW 17 26 9 14 1020.5 1021.6 0.0
02/09:00pm 1.6 -4.2 -1.8 78 1.2 W 19 28 10 15 1020.3 1021.4 0.0
02/08:30pm 1.7 -3.7 -1.5 79 1.2 W 17 24 9 13 1020.1 1021.2 0.0
02/08:00pm 1.9 -2.7 -1.2 80 1.1 W 13 20 7 11 1019.9 1021.0 0.0
02/07:30pm 1.6 -3.1 -1.5 80 1.1 W 13 24 7 13 1019.6 1020.7 0.0
02/07:00pm 1.8 -2.8 -1.4 79 1.2 WSW 13 20 7 11 1019.1 1020.3 0.0
02/06:30pm 2.3 -2.3 -1.3 77 1.3 W 13 19 7 10 1018.6 1019.7 0.0
02/06:00pm 2.4 -2.6 -1.2 77 1.3 WSW 15 24 8 13 1018.3 1019.4 0.0
02/05:30pm 2.7 -3.6 -1.1 76 1.4 WSW 22 33 12 18 1017.6 1018.7 0.0
02/05:00pm 2.9 -3.0 -1.1 75 1.5 WSW 20 33 11 18 1017.1 1018.1 0.0
02/04:30pm 3.8 -2.1 -0.6 73 1.7 WSW 20 35 11 19 1017.0 1018.0 0.0
02/04:00pm 4.4 -1.5 -0.6 70 1.9 SW 20 32 11 17 1016.1 1017.2 0.0
02/03:30pm 5.1 -1.1 -0.3 68 2.1 WSW 22 32 12 17 1015.8 1016.9 0.0
02/03:00pm 5.9 -0.6 0.5 68 2.2 WSW 24 39 13 21 1015.4 1016.4 0.0
02/02:30pm 5.0 -1.1 0.6 73 1.8 WSW 22 32 12 17 1015.0 1016.0 0.0
02/02:00pm 5.5 -1.1 1.8 77 1.5 WSW 26 41 14 22 1014.3 1015.4 0.0
02/01:43pm 4.8 -2.3 1.1 77 1.5 W 28 50 15 27 1014.0 1015.1 0.0
02/01:30pm 5.0 -1.5 0.4 72 1.8 WSW 24 39 13 21 1013.6 1014.6 0.0
02/01:00pm 5.6 -2.0 0.8 71 1.9 WSW 30 44 16 24 1013.2 1014.2 0.0
02/12:30pm 5.2 -1.9 1.3 76 1.6 WSW 28 46 15 25 1012.8 1013.8 0.0
02/12:29pm 5.1 -2.1 1.0 75 1.7 WSW 28 46 15 25 1012.9 1013.9 0.0
02/12:00pm 5.6 -1.9 1.2 73 1.8 WSW 30 44 16 24 1012.8 1013.8 0.0
02/11:30am 5.0 -2.2 0.4 72 1.8 WSW 28 43 15 23 1012.5 1013.5 0.0
02/11:00am 4.7 -1.8 0.5 74 1.7 W 24 35 13 19 1012.3 1013.4 0.0
02/10:30am 4.6 -0.8 1.5 80 1.3 WNW 19 30 10 16 1012.2 1013.3 0.0
02/10:00am 4.0 -1.9 1.7 85 0.9 WNW 22 32 12 17 1011.9 1013.0 0.0
02/09:30am 3.1 -2.3 1.3 88 0.7 WNW 19 28 10 15 1011.2 1012.2 0.0
02/09:00am 1.9 -3.5 1.0 94 0.4 WNW 19 28 10 15 1011.0 1012.0 2.0
02/08:30am 1.9 -4.6 0.3 89 0.6 W 24 43 13 23 1010.7 1011.7 2.0
02/08:24am 1.9 -4.2 0.1 88 0.7 WNW 22 43 12 23 1010.4 1011.4 2.0
02/08:00am 1.3 -2.4 0.0 91 0.5 W 9 17 5 9 1010.2 1011.2 2.0
02/07:30am 1.2 -2.5 0.0 92 0.5 WSW 9 17 5 9 1009.2 1010.2 2.0
02/07:00am 1.0 -3.1 -0.3 91 0.5 W 11 17 6 9 1008.3 1009.3 2.0
02/06:30am 1.4 -4.2 0.2 92 0.5 W 19 26 10 14 1008.2 1009.1 2.0
02/06:00am 1.6 -4.0 0.0 89 0.6 WNW 19 24 10 13 1007.6 1008.6 2.0
02/05:30am 1.8 -2.7 -0.3 86 0.8 W 13 20 7 11 1007.7 1008.7 2.0
02/05:00am 1.6 -2.5 -0.3 87 0.7 W 11 20 6 11 1007.3 1008.3 2.0
02/04:30am 1.6 -3.3 -0.5 86 0.8 W 15 28 8 15 1006.8 1007.8 2.0
02/04:00am 2.1 -4.2 -0.8 81 1.1 W 22 39 12 21 1006.4 1007.3 2.0
02/03:30am 2.4 -4.3 -0.9 79 1.2 W 24 39 13 21 1006.1 1007.0 2.0
02/03:00am 2.9 -2.9 0.0 81 1.1 W 20 39 11 21 1005.8 1006.7 2.0
02/02:30am 3.2 -2.9 0.3 81 1.1 W 22 33 12 18 1005.8 1006.7 2.0
02/02:00am 3.2 -3.3 0.4 82 1.1 W 24 41 13 22 1005.7 1006.6 2.0
02/01:30am 3.6 -4.3 1.0 83 1.0 W 32 50 17 27 1005.2 1006.2 2.0
02/01:21am 3.7 -3.4 1.3 84 1.0 W 28 50 15 27 1005.1 1006.1 2.0
02/01:00am 3.3 -2.3 1.0 85 0.9 W 20 32 11 17 1005.1 1006.1 2.0
02/12:34am 4.6 -2.4 1.8 82 1.1 W 28 63 15 34 1005.6 1006.5 2.0
02/12:30am 4.6 -2.0 2.0 83 1.1 WNW 26 43 14 23 1005.4 1006.4 2.0
02/12:00am 3.4 -2.0 2.4 93 0.4 WNW 20 28 11 15 1005.7 1006.6 2.0
 
Date/Time
EST
Temp
°C
App
Temp
°C
Dew
Point
Rel
Hum
%
Delta-T
°C
Wind Press
QNH
hPa
Press
MSL
hPa
Rain
since 9 am
mm
Dir
 
Spd
km/h
Gust
km/h
Spd
kts
Gust
kts
01/11:30pm 4.0 -1.7 2.8 92 0.5 WNW 22 41 12 22 1005.4 1006.4 2.0
01/11:18pm 4.5 -2.2 3.5 93 0.4 W 28 46 15 25 1005.9 1006.8 1.8
01/11:00pm 4.4 0.2 3.8 96 0.3 WNW 15 22 8 12 1005.3 1006.3 1.8
01/10:30pm 4.0 -0.7 3.4 96 0.3 WNW 17 22 9 12 1005.7 1006.6 1.8
01/10:00pm 3.8 -0.6 2.9 94 0.4 W 15 26 8 14 1005.6 1006.5 1.8

Other Formats:

Comma delimited format used in spreadsheet applications
http://www.bom.gov.au/fwo/IDT60801/IDT60801.94960.axf

JavaScript Object Notation format (JSON) in row-major order
http://www.bom.gov.au/fwo/IDT60801/IDT60801.94960.json